createdAt,value
2022-11-15T00:01:18.061Z,19.85
2022-11-15T00:03:45.929Z,18.30
2022-11-15T00:06:13.283Z,18.02
2022-11-15T00:08:40.269Z,17.00
2022-11-15T00:11:07.305Z,17.10
2022-11-15T00:13:34.830Z,16.27
2022-11-15T00:16:03.215Z,16.00
2022-11-15T00:18:31.726Z,16.63
2022-11-15T00:21:07.472Z,16.45
2022-11-15T00:23:35.065Z,17.88
2022-11-15T00:26:02.240Z,16.38
2022-11-15T00:28:29.247Z,15.23
2022-11-15T00:31:02.653Z,17.23
2022-11-15T00:33:30.055Z,17.63
2022-11-15T00:36:12.409Z,15.05
2022-11-15T00:38:41.363Z,16.83
2022-11-15T00:41:09.786Z,17.17
2022-11-15T00:43:37.772Z,12.90
2022-11-15T00:46:04.873Z,15.60
2022-11-15T00:48:32.480Z,15.63
2022-11-15T00:50:59.529Z,14.85
2022-11-15T00:53:26.531Z,14.20
2022-11-15T00:55:53.702Z,15.38
2022-11-15T00:58:21.034Z,15.20
2022-11-15T01:00:48.364Z,15.68
2022-11-15T01:03:15.439Z,15.27
2022-11-15T01:05:42.555Z,13.20
2022-11-15T01:08:17.787Z,16.05
2022-11-15T01:10:44.778Z,15.73
2022-11-15T01:13:11.859Z,13.60
2022-11-15T01:15:42.667Z,15.63
2022-11-15T01:18:09.800Z,13.68
2022-11-15T01:20:42.992Z,16.50
2022-11-15T01:23:10.854Z,13.73
2022-11-15T01:25:38.618Z,15.13
2022-11-15T01:28:05.582Z,14.38
2022-11-15T01:30:32.645Z,15.00
2022-11-15T01:32:59.618Z,12.13
2022-11-15T01:35:26.607Z,14.93
2022-11-15T01:37:53.540Z,15.35
2022-11-15T01:40:20.486Z,13.07
2022-11-15T01:42:47.572Z,14.18
2022-11-15T01:45:16.615Z,15.00
2022-11-15T01:47:54.648Z,14.82
2022-11-15T01:50:28.904Z,15.60
2022-11-15T01:52:56.382Z,14.15
2022-11-15T01:55:27.820Z,13.63
2022-11-15T01:58:02.924Z,13.63
2022-11-15T02:00:31.759Z,13.17
2022-11-15T02:02:58.955Z,15.40
2022-11-15T02:05:26.494Z,12.35
2022-11-15T02:07:53.628Z,13.07
2022-11-15T02:10:24.289Z,12.63
2022-11-15T02:12:53.193Z,13.65
2022-11-15T02:15:20.576Z,13.13
2022-11-15T02:17:53.273Z,11.70
2022-11-15T02:21:06.911Z,13.43
2022-11-15T02:23:48.582Z,14.80
2022-11-15T02:27:07.249Z,13.57
2022-11-15T02:29:55.520Z,13.65
2022-11-15T02:32:47.740Z,13.15
2022-11-15T02:35:46.695Z,13.50
2022-11-15T02:38:25.548Z,11.93
2022-11-15T02:41:05.685Z,11.57
2022-11-15T02:44:02.069Z,12.73
2022-11-15T02:46:53.136Z,13.25
2022-11-15T02:49:20.706Z,11.75
2022-11-15T02:51:50.903Z,11.82
2022-11-15T02:54:27.514Z,12.52
2022-11-15T02:56:58.838Z,12.88
2022-11-15T02:59:57.332Z,13.00
2022-11-15T03:03:06.546Z,13.15
2022-11-15T03:06:02.831Z,10.48
2022-11-15T03:08:41.671Z,11.43
2022-11-15T03:11:16.520Z,12.00
2022-11-15T03:14:17.757Z,14.30
2022-11-15T03:17:23.772Z,11.23
2022-11-15T03:20:05.385Z,11.20
2022-11-15T03:22:43.314Z,12.73
2022-11-15T03:25:15.187Z,11.90
2022-11-15T03:27:54.489Z,11.75
2022-11-15T03:30:21.709Z,10.85
2022-11-15T03:32:57.918Z,10.98
2022-11-15T03:35:41.673Z,11.53
2022-11-15T03:38:26.118Z,12.35
2022-11-15T03:41:11.337Z,12.05
2022-11-15T03:44:37.531Z,10.50
2022-11-15T03:47:15.786Z,12.45
2022-11-15T03:49:52.044Z,11.57
2022-11-15T03:52:21.093Z,10.52
2022-11-15T03:54:57.628Z,10.95
2022-11-15T03:57:24.691Z,11.73
2022-11-15T03:59:51.646Z,11.55
2022-11-15T04:02:18.723Z,10.90
2022-11-15T04:04:45.650Z,10.57
2022-11-15T04:07:12.904Z,9.93
2022-11-15T04:10:00.354Z,12.23
2022-11-15T04:12:33.432Z,10.73
2022-11-15T04:15:12.066Z,10.45
2022-11-15T04:17:48.482Z,10.47
2022-11-15T04:20:46.631Z,10.43
2022-11-15T04:23:39.424Z,12.30
2022-11-15T04:26:22.011Z,12.97
2022-11-15T04:29:07.786Z,10.40
2022-11-15T04:31:34.782Z,11.07
2022-11-15T04:34:01.810Z,10.68
2022-11-15T04:36:47.487Z,11.43
2022-11-15T04:39:14.523Z,9.68
2022-11-15T04:41:41.476Z,13.70
2022-11-15T04:44:08.471Z,10.63
2022-11-15T04:46:35.415Z,10.68
2022-11-15T04:49:02.393Z,10.25
2022-11-15T04:51:29.377Z,11.10
2022-11-15T04:53:56.359Z,12.65
2022-11-15T04:56:23.301Z,9.77
2022-11-15T04:58:50.889Z,8.73
2022-11-15T05:01:18.438Z,8.27
2022-11-15T05:04:05.042Z,10.57
2022-11-15T05:06:32.494Z,9.43
2022-11-15T05:08:59.678Z,8.52
2022-11-15T05:11:28.219Z,8.68
2022-11-15T05:13:55.457Z,7.78
2022-11-15T05:16:22.745Z,9.05
2022-11-15T05:18:53.680Z,8.63
2022-11-15T05:21:21.619Z,7.55
2022-11-15T05:23:48.732Z,8.97
2022-11-15T05:26:18.690Z,9.15
2022-11-15T05:28:45.974Z,7.33
2022-11-15T05:31:16.840Z,8.80
2022-11-15T05:33:45.326Z,9.93
2022-11-15T05:36:27.356Z,7.70
2022-11-15T05:38:55.111Z,5.75
2022-11-15T05:41:33.427Z,8.85
2022-11-15T05:44:02.270Z,6.97
2022-11-15T05:46:30.441Z,8.40
2022-11-15T05:48:58.748Z,8.43
2022-11-15T05:51:28.607Z,6.82
2022-11-15T05:53:59.226Z,7.53
2022-11-15T05:56:27.133Z,6.80
2022-11-15T05:58:59.927Z,8.55
2022-11-15T06:01:28.641Z,8.27
2022-11-15T06:03:55.906Z,8.80
2022-11-15T06:06:22.939Z,9.80
2022-11-15T06:08:49.912Z,7.90
2022-11-15T06:11:17.255Z,7.65
2022-11-15T06:13:44.226Z,6.50
2022-11-15T06:16:11.202Z,7.88
2022-11-15T06:18:38.743Z,9.00
2022-11-15T06:21:06.182Z,7.22
2022-11-15T06:23:35.108Z,7.82
2022-11-15T06:26:04.099Z,7.20
2022-11-15T06:28:33.436Z,7.30
2022-11-15T06:31:14.180Z,6.72
2022-11-15T06:33:41.390Z,6.03
2022-11-15T06:36:17.420Z,6.63
2022-11-15T06:38:48.005Z,7.32
2022-11-15T06:41:15.739Z,5.60
2022-11-15T06:43:43.207Z,6.40
2022-11-15T06:46:10.443Z,7.50
2022-11-15T06:48:37.627Z,7.25
2022-11-15T06:51:06.054Z,2.25
2022-11-15T06:53:34.415Z,1.80
2022-11-15T06:56:07.744Z,2.40
2022-11-15T06:58:36.012Z,2.92
2022-11-15T07:01:11.992Z,3.03
2022-11-15T07:03:42.083Z,1.55
2022-11-15T07:06:10.788Z,3.00
2022-11-15T07:08:39.002Z,1.50
2022-11-15T07:11:08.554Z,2.50
2022-11-15T07:13:38.211Z,2.00
2022-11-15T07:16:11.278Z,1.38
2022-11-15T07:18:41.719Z,1.45
2022-11-15T07:21:11.469Z,1.92
2022-11-15T07:23:39.762Z,2.80
2022-11-15T07:26:08.407Z,1.90
2022-11-15T07:28:35.819Z,1.15
2022-11-15T07:31:08.181Z,1.97
2022-11-15T07:33:36.538Z,1.42
2022-11-15T07:36:06.504Z,0.90
2022-11-15T07:38:42.289Z,1.93
2022-11-15T07:41:10.464Z,1.00
2022-11-15T07:43:37.441Z,2.20
2022-11-15T07:46:10.641Z,1.70
2022-11-15T07:48:44.457Z,1.40
2022-11-15T07:51:15.255Z,1.17
2022-11-15T07:53:43.880Z,1.25
2022-11-15T07:56:11.613Z,1.67
2022-11-15T07:58:38.644Z,1.27
2022-11-15T08:01:08.464Z,0.50
2022-11-15T08:03:36.422Z,2.25
2022-11-15T08:06:05.874Z,1.17
2022-11-15T08:08:32.897Z,1.70
2022-11-15T08:11:00.785Z,1.05
2022-11-15T08:13:28.157Z,1.20
2022-11-15T08:16:03.941Z,1.45
2022-11-15T08:18:30.889Z,1.80
2022-11-15T08:21:02.363Z,1.40
2022-11-15T08:23:30.134Z,0.80
2022-11-15T08:26:03.687Z,1.40
2022-11-15T08:28:32.125Z,1.35
2022-11-15T08:30:59.163Z,2.03
2022-11-15T08:33:26.352Z,1.20
2022-11-15T08:35:53.276Z,0.88
2022-11-15T08:38:20.235Z,1.52
2022-11-15T08:40:47.174Z,1.33
2022-11-15T08:43:14.136Z,1.45
2022-11-15T08:45:41.185Z,1.20
2022-11-15T08:48:08.216Z,1.80
2022-11-15T08:50:35.223Z,1.75
2022-11-15T08:53:10.940Z,1.85
2022-11-15T08:55:39.411Z,1.63
2022-11-15T08:58:06.622Z,1.33
2022-11-15T09:00:34.663Z,1.05
2022-11-15T09:03:07.591Z,1.25
2022-11-15T09:05:38.741Z,1.13
2022-11-15T09:08:19.014Z,2.05
2022-11-15T09:10:53.270Z,1.15
2022-11-15T09:13:20.301Z,1.70
2022-11-15T09:15:47.421Z,1.38
2022-11-15T09:18:14.533Z,1.37
2022-11-15T09:20:41.517Z,1.20
2022-11-15T09:23:08.638Z,2.45
2022-11-15T09:25:35.739Z,1.48
2022-11-15T09:28:08.481Z,1.58
2022-11-15T09:30:35.582Z,2.08
2022-11-15T09:33:13.442Z,1.70
2022-11-15T09:35:41.972Z,1.48
2022-11-15T09:38:09.286Z,1.25
2022-11-15T09:40:38.894Z,1.38
2022-11-15T09:43:30.502Z,0.90
2022-11-15T09:46:31.049Z,1.40
2022-11-15T09:49:03.586Z,2.10
2022-11-15T09:51:47.528Z,1.40
2022-11-15T09:54:54.673Z,1.70
2022-11-15T09:57:33.019Z,1.40
2022-11-15T10:03:23.040Z,1.33
2022-11-15T10:05:53.608Z,2.33
2022-11-15T10:08:32.879Z,0.85
2022-11-15T10:11:35.764Z,0.70
2022-11-15T10:13:56.086Z,1.33
2022-11-15T10:16:59.339Z,0.95
2022-11-15T10:20:06.209Z,2.92
2022-11-15T10:22:50.038Z,0.93
2022-11-15T10:25:32.589Z,2.13
2022-11-15T10:28:30.538Z,1.00
2022-11-15T10:31:01.946Z,0.95
2022-11-15T10:33:40.498Z,1.35
2022-11-15T10:36:10.447Z,1.30
2022-11-15T10:38:49.422Z,1.60
2022-11-15T10:41:43.716Z,1.33
2022-11-15T10:44:30.499Z,1.13
2022-11-15T10:46:57.776Z,0.98
2022-11-15T10:49:29.761Z,0.63
2022-11-15T10:52:18.257Z,0.88
2022-11-15T10:55:24.221Z,2.22
2022-11-15T10:58:22.825Z,0.80
2022-11-15T11:00:50.013Z,1.40
2022-11-15T11:03:38.941Z,1.13
2022-11-15T11:06:19.061Z,0.98
2022-11-15T11:09:39.599Z,1.00
2022-11-15T11:12:11.921Z,1.10
2022-11-15T11:14:40.585Z,0.70
2022-11-15T11:18:24.198Z,0.90
2022-11-15T11:20:59.163Z,1.60
2022-11-15T11:24:01.655Z,0.70
2022-11-15T11:26:45.034Z,0.82
2022-11-15T11:29:39.679Z,0.68
2022-11-15T11:32:32.021Z,0.60
2022-11-15T11:35:16.425Z,0.75
2022-11-15T11:38:19.577Z,1.70
2022-11-15T11:41:03.966Z,1.95
2022-11-15T11:44:00.861Z,0.68
2022-11-15T11:47:11.825Z,1.15
2022-11-15T11:50:11.286Z,1.85
2022-11-15T11:53:05.787Z,1.08
2022-11-15T11:55:45.210Z,0.85
2022-11-15T11:58:23.041Z,1.50
2022-11-15T12:01:23.405Z,0.68
2022-11-15T12:04:18.860Z,1.00
2022-11-15T12:07:16.921Z,0.40
2022-11-15T12:10:24.513Z,0.77
2022-11-15T12:13:11.105Z,0.63
2022-11-15T12:15:51.959Z,0.52
2022-11-15T12:18:18.933Z,1.50
2022-11-15T12:21:49.090Z,1.13
2022-11-15T12:24:34.535Z,1.65
2022-11-15T12:27:28.247Z,0.50
2022-11-15T12:30:01.663Z,0.20
2022-11-15T12:32:36.304Z,0.52
2022-11-15T12:35:07.474Z,1.00
2022-11-15T12:37:38.654Z,0.50
2022-11-15T12:40:25.133Z,0.50
2022-11-15T12:43:14.019Z,0.80
2022-11-15T12:45:44.614Z,2.47
2022-11-15T12:48:17.611Z,0.93
2022-11-15T12:50:56.159Z,0.30
2022-11-15T12:53:25.854Z,0.82
2022-11-15T12:56:17.990Z,1.20
2022-11-15T12:59:00.152Z,1.88
2022-11-15T13:01:38.779Z,1.20
2022-11-15T13:04:20.552Z,0.80
2022-11-15T13:07:05.532Z,0.88
2022-11-15T13:09:36.051Z,0.70
2022-11-15T13:12:08.629Z,0.67
2022-11-15T13:14:38.396Z,0.68
2022-11-15T13:17:31.845Z,1.30
2022-11-15T13:20:07.469Z,0.30
2022-11-15T13:23:05.961Z,0.30
2022-11-15T13:26:03.797Z,0.40
2022-11-15T13:28:42.626Z,0.20
2022-11-15T13:31:41.354Z,0.55
2022-11-15T13:34:54.058Z,1.30
2022-11-15T13:37:23.777Z,0.77
2022-11-15T13:39:51.441Z,0.90
2022-11-15T13:42:21.746Z,1.60
2022-11-15T13:45:05.735Z,0.60
2022-11-15T13:47:34.928Z,0.88
2022-11-15T13:50:02.099Z,0.85
2022-11-15T13:52:40.520Z,0.90
2022-11-15T13:55:19.974Z,0.50
2022-11-15T13:58:07.158Z,1.58
2022-11-15T14:00:45.239Z,0.70
2022-11-15T14:03:28.730Z,0.57
2022-11-15T14:06:18.480Z,1.25
2022-11-15T14:09:17.895Z,0.80
2022-11-15T14:11:56.533Z,1.00
2022-11-15T14:14:27.775Z,0.63
2022-11-15T14:16:58.844Z,0.40
2022-11-15T14:19:25.658Z,0.57
2022-11-15T14:22:11.313Z,0.63
2022-11-15T14:24:39.185Z,1.20
2022-11-15T14:27:30.093Z,0.22
2022-11-15T14:29:57.059Z,0.63
2022-11-15T14:32:39.739Z,0.85
2022-11-15T14:35:20.781Z,0.30
2022-11-15T14:37:48.267Z,0.82
2022-11-15T14:40:19.590Z,1.90
2022-11-15T14:42:49.418Z,0.95
2022-11-15T14:45:21.228Z,1.00
2022-11-15T14:47:49.157Z,0.43
2022-11-15T14:50:20.720Z,0.50
2022-11-15T14:52:49.164Z,0.45
2022-11-15T14:55:36.989Z,0.70
2022-11-15T14:58:06.250Z,0.55
2022-11-15T15:00:35.280Z,0.32
2022-11-15T15:03:04.364Z,0.65
2022-11-15T15:05:44.079Z,0.40
2022-11-15T15:08:11.774Z,0.90
2022-11-15T15:10:45.417Z,0.20
2022-11-15T15:13:24.537Z,0.93
2022-11-15T15:15:53.022Z,0.30
2022-11-15T15:18:20.990Z,0.68
2022-11-15T15:20:57.665Z,0.73
2022-11-15T15:23:26.611Z,0.88
2022-11-15T15:25:54.175Z,0.40
2022-11-15T15:28:21.201Z,0.65
2022-11-15T15:30:48.281Z,0.50
2022-11-15T15:33:15.250Z,0.60
2022-11-15T15:35:42.443Z,0.45
2022-11-15T15:38:13.251Z,0.50
2022-11-15T15:40:43.144Z,0.80
2022-11-15T15:43:10.313Z,0.82
2022-11-15T15:45:42.497Z,0.55
2022-11-15T15:48:17.841Z,0.93
2022-11-15T15:50:46.103Z,0.77
2022-11-15T15:53:14.376Z,0.85
2022-11-15T15:55:41.724Z,0.70
2022-11-15T15:58:09.358Z,0.50
2022-11-15T16:00:37.857Z,4.93
2022-11-15T16:03:04.979Z,3.38
2022-11-15T16:05:32.214Z,4.43
2022-11-15T16:07:59.419Z,3.15
2022-11-15T16:10:32.611Z,4.00
2022-11-15T16:12:59.592Z,2.90
2022-11-15T16:15:32.700Z,2.55
2022-11-15T16:18:01.750Z,3.55
2022-11-15T16:20:43.691Z,3.47
2022-11-15T16:23:14.493Z,3.97
2022-11-15T16:25:56.742Z,3.08
2022-11-15T16:28:30.279Z,2.50
2022-11-15T16:31:10.634Z,3.17
2022-11-15T16:33:38.469Z,4.53
2022-11-15T16:36:13.611Z,4.05
2022-11-15T16:38:40.569Z,4.43
2022-11-15T16:41:07.561Z,4.05
2022-11-15T16:43:34.603Z,3.42
2022-11-15T16:46:14.739Z,4.40
2022-11-15T16:48:41.852Z,5.60
2022-11-15T16:51:09.191Z,4.45
2022-11-15T16:53:36.465Z,6.93
2022-11-15T16:56:04.087Z,5.22
2022-11-15T16:58:31.769Z,4.57
2022-11-15T17:00:58.952Z,5.35
2022-11-15T17:03:26.317Z,3.70
2022-11-15T17:05:53.294Z,3.60
2022-11-15T17:08:23.697Z,4.60
2022-11-15T17:10:50.992Z,6.53
2022-11-15T17:13:18.006Z,6.03
2022-11-15T17:15:45.040Z,5.40
2022-11-15T17:18:14.128Z,3.88
2022-11-15T17:20:42.731Z,4.15
2022-11-15T17:23:18.682Z,5.20
2022-11-15T17:25:45.690Z,4.53
2022-11-15T17:28:12.658Z,4.33
2022-11-15T17:30:43.427Z,4.10
2022-11-15T17:33:10.366Z,5.95
2022-11-15T17:35:37.370Z,5.33
2022-11-15T17:38:04.354Z,7.18
2022-11-15T17:40:31.498Z,7.63
2022-11-15T17:42:58.560Z,5.82
2022-11-15T17:45:25.838Z,4.87
2022-11-15T17:47:53.804Z,6.95
2022-11-15T17:50:20.837Z,5.65
2022-11-15T17:52:47.888Z,6.03
2022-11-15T17:55:14.908Z,5.15
2022-11-15T17:57:44.301Z,6.60
2022-11-15T18:00:12.340Z,4.45
2022-11-15T18:02:39.339Z,5.17
2022-11-15T18:05:07.194Z,5.78
2022-11-15T18:07:34.313Z,5.47
2022-11-15T18:10:01.366Z,4.50
2022-11-15T18:12:28.356Z,5.28
2022-11-15T18:14:55.358Z,6.20
2022-11-15T18:17:23.875Z,6.00
2022-11-15T18:19:50.850Z,6.45
2022-11-15T18:22:18.523Z,5.70
2022-11-15T18:24:47.047Z,4.97
2022-11-15T18:27:13.990Z,5.75
2022-11-15T18:29:41.031Z,5.05
2022-11-15T18:32:12.434Z,5.07
2022-11-15T18:34:39.992Z,4.72
2022-11-15T18:37:07.293Z,7.33
2022-11-15T18:39:34.338Z,6.88
2022-11-15T18:42:01.511Z,5.63
2022-11-15T18:44:31.740Z,8.38
2022-11-15T18:46:58.749Z,6.65
2022-11-15T18:49:26.114Z,7.57
2022-11-15T18:51:53.095Z,7.32
2022-11-15T18:54:20.095Z,7.40
2022-11-15T18:56:47.545Z,7.45
2022-11-15T18:59:15.583Z,6.05
2022-11-15T19:01:48.704Z,8.03
2022-11-15T19:04:19.140Z,7.15
2022-11-15T19:06:49.195Z,7.20
2022-11-15T19:09:18.480Z,6.90
2022-11-15T19:11:48.007Z,5.38
2022-11-15T19:14:17.272Z,5.82
2022-11-15T19:16:55.154Z,4.97
2022-11-15T19:19:27.763Z,6.28
2022-11-15T19:21:56.293Z,4.47
2022-11-15T19:24:23.409Z,5.95
2022-11-15T19:26:50.394Z,6.50
2022-11-15T19:29:18.319Z,6.18
2022-11-15T19:31:46.039Z,5.50
2022-11-15T19:34:13.141Z,5.47
2022-11-15T19:36:44.653Z,5.97
2022-11-15T19:39:14.720Z,6.85
2022-11-15T19:41:44.135Z,6.70
2022-11-15T19:44:12.884Z,5.97
2022-11-15T19:46:40.747Z,10.23
2022-11-15T19:49:10.798Z,7.93
2022-11-15T19:51:39.130Z,6.38
2022-11-15T19:54:08.842Z,8.85
2022-11-15T19:56:37.010Z,8.00
2022-11-15T19:59:07.731Z,5.45
2022-11-15T20:01:38.970Z,5.88
2022-11-15T20:04:08.135Z,7.63
2022-11-15T20:06:39.452Z,6.43
2022-11-15T20:09:06.540Z,6.55
2022-11-15T20:11:37.867Z,7.85
2022-11-15T20:14:06.547Z,5.97
2022-11-15T20:16:33.645Z,8.02
2022-11-15T20:19:00.717Z,7.18
2022-11-15T20:21:27.805Z,6.35
2022-11-15T20:23:56.376Z,8.77
2022-11-15T20:26:23.706Z,5.95
2022-11-15T20:28:50.741Z,6.75
2022-11-15T20:31:18.174Z,6.93
2022-11-15T20:33:45.774Z,7.60
2022-11-15T20:36:15.735Z,6.25
2022-11-15T20:38:44.412Z,6.57
2022-11-15T20:41:12.770Z,7.47
2022-11-15T20:43:43.332Z,7.17
2022-11-15T20:46:12.392Z,5.88
2022-11-15T20:48:40.818Z,7.60
2022-11-15T20:51:17.940Z,7.13
2022-11-15T20:53:46.224Z,7.00
2022-11-15T20:56:17.598Z,5.97
2022-11-15T20:58:45.940Z,6.60
2022-11-15T21:01:16.300Z,7.70
2022-11-15T21:03:43.818Z,5.70
2022-11-15T21:06:11.809Z,8.88
2022-11-15T21:08:57.463Z,7.75
2022-11-15T21:11:44.050Z,7.75
2022-11-15T21:14:11.226Z,5.95
2022-11-15T21:16:39.021Z,6.18
2022-11-15T21:19:07.004Z,5.65
2022-11-15T21:21:36.111Z,6.97
2022-11-15T21:24:08.794Z,9.45
2022-11-15T21:26:36.924Z,6.82
2022-11-15T21:29:04.870Z,6.45
2022-11-15T21:31:32.227Z,6.85
2022-11-15T21:34:02.630Z,8.10
2022-11-15T21:36:30.015Z,7.80
2022-11-15T21:38:57.046Z,5.93
2022-11-15T21:41:24.158Z,6.20
2022-11-15T21:43:51.173Z,6.22
2022-11-15T21:46:18.247Z,5.93
2022-11-15T21:48:45.187Z,6.45
2022-11-15T21:51:13.263Z,7.22
2022-11-15T21:53:40.252Z,6.65
2022-11-15T21:56:08.186Z,6.40
2022-11-15T21:58:35.879Z,5.82
2022-11-15T22:01:22.239Z,6.53
2022-11-15T22:03:49.331Z,5.43
2022-11-15T22:06:18.140Z,5.22
2022-11-15T22:08:46.342Z,7.47
2022-11-15T22:11:14.188Z,6.32
2022-11-15T22:13:41.418Z,6.40
2022-11-15T22:16:10.107Z,5.65
2022-11-15T22:18:38.164Z,5.57
2022-11-15T22:21:10.921Z,5.60
2022-11-15T22:23:38.417Z,5.75
2022-11-15T22:26:06.202Z,6.33
2022-11-15T22:28:33.689Z,6.00
2022-11-15T22:31:00.807Z,5.75
2022-11-15T22:33:30.313Z,6.22
2022-11-15T22:35:58.691Z,6.63
2022-11-15T22:38:26.728Z,5.57
2022-11-15T22:40:54.492Z,7.00
2022-11-15T22:43:23.973Z,8.30
2022-11-15T22:45:55.647Z,7.13
2022-11-15T22:48:27.079Z,6.53
2022-11-15T22:50:54.857Z,6.32
2022-11-15T22:53:22.610Z,7.85
2022-11-15T22:56:07.771Z,6.85
2022-11-15T22:58:35.699Z,6.50
2022-11-15T23:01:05.146Z,6.40
2022-11-15T23:03:33.548Z,6.13
2022-11-15T23:06:06.844Z,7.85
2022-11-15T23:08:35.006Z,7.32
2022-11-15T23:11:22.765Z,6.50
2022-11-15T23:13:53.285Z,8.18
2022-11-15T23:16:23.263Z,8.30
2022-11-15T23:18:57.523Z,7.97
2022-11-15T23:22:05.928Z,5.97
2022-11-15T23:24:33.747Z,6.25
2022-11-15T23:27:07.179Z,7.25
2022-11-15T23:29:56.205Z,5.85
2022-11-15T23:32:41.701Z,5.93
2022-11-15T23:35:08.958Z,6.47
2022-11-15T23:37:35.974Z,9.35
2022-11-15T23:40:03.223Z,5.90
2022-11-15T23:42:30.177Z,6.60
2022-11-15T23:44:57.206Z,6.10
2022-11-15T23:47:24.225Z,6.18
2022-11-15T23:49:51.195Z,7.45
2022-11-15T23:52:18.596Z,6.03
2022-11-15T23:54:45.597Z,5.65
2022-11-15T23:57:12.829Z,5.60
2022-11-15T23:59:43.765Z,6.15
